Time;durP1;ratioP1;P1;durP2;ratioP2;P2;SDS_P1;SDS_P2;PMS_P1;PMS_P2;Temp;Humidity;BMP_temperature;BMP_pressure;BME280_temperature;BME280_humidity;BME280_pressure;Samples;Min_cycle;Max_cycle;Signal;HPM_P1;HPM_P2
2022/07/02 00:00:18;;;;;;;3.80;2.50;;;13.70;99.90;;;;;;5111923;28;20219;-51
2022/07/02 00:02:51;;;;;;;2.60;2.40;;;13.70;99.90;;;;;;5100875;28;20207;-50
2022/07/02 00:05:22;;;;;;;3.30;2.10;;;13.80;99.90;;;;;;5109607;28;20223;-51
2022/07/02 00:07:51;;;;;;;2.30;2.10;;;13.80;99.90;;;;;;5111732;28;20223;-51
2022/07/02 00:10:20;;;;;;;3.40;2.20;;;13.90;99.90;;;;;;5111805;28;20227;-50
2022/07/02 00:12:48;;;;;;;2.90;2.17;;;13.90;99.90;;;;;;5112807;28;20556;-51
2022/07/02 00:15:17;;;;;;;2.33;2.13;;;13.90;99.90;;;;;;5111940;28;20704;-51
2022/07/02 00:17:45;;;;;;;2.83;2.13;;;13.90;99.90;;;;;;5109901;28;20296;-51
2022/07/02 00:20:14;;;;;;;2.60;2.40;;;13.90;99.90;;;;;;5111762;28;20227;-51
2022/07/02 00:22:43;;;;;;;2.60;2.20;;;13.90;99.90;;;;;;5111475;28;20207;-51
2022/07/02 00:25:11;;;;;;;3.63;1.93;;;13.90;99.90;;;;;;5111367;28;20207;-51
2022/07/02 00:27:43;;;;;;;2.30;2.10;;;13.80;99.90;;;;;;5111273;28;20281;-51
2022/07/02 00:30:14;;;;;;;2.20;2.00;;;13.80;99.90;;;;;;5111612;28;20227;-51
2022/07/02 00:32:43;;;;;;;2.63;1.97;;;13.80;99.90;;;;;;5110922;28;20668;-51
2022/07/02 00:35:12;;;;;;;3.40;2.40;;;13.70;99.90;;;;;;5110075;28;20211;-51
2022/07/02 00:37:40;;;;;;;3.30;1.90;;;13.70;99.90;;;;;;5111390;28;20208;-50
2022/07/02 00:40:09;;;;;;;3.03;2.00;;;13.70;99.90;;;;;;5111689;28;20207;-51
2022/07/02 00:42:38;;;;;;;3.50;2.27;;;13.60;99.90;;;;;;5112206;28;20355;-51
2022/07/02 00:45:08;;;;;;;3.07;2.10;;;13.60;99.90;;;;;;5111462;28;20204;-51
2022/07/02 00:47:37;;;;;;;2.60;2.40;;;13.60;99.90;;;;;;5111383;28;20227;-51
2022/07/02 00:50:06;;;;;;;3.83;2.40;;;13.70;99.90;;;;;;5111527;28;20227;-50
2022/07/02 00:52:34;;;;;;;3.43;2.37;;;13.70;99.90;;;;;;5111492;28;20211;-50
2022/07/02 00:55:04;;;;;;;2.50;2.20;;;13.70;99.90;;;;;;5111044;28;20255;-50
2022/07/02 00:57:33;;;;;;;2.27;2.10;;;13.70;99.90;;;;;;5111549;28;20253;-51
2022/07/02 01:00:01;;;;;;;2.97;2.37;;;13.70;99.90;;;;;;5111369;28;20203;-51
2022/07/02 01:02:32;;;;;;;2.17;2.00;;;13.70;99.90;;;;;;5102378;28;20211;-51
2022/07/02 01:05:01;;;;;;;4.37;2.23;;;13.70;99.90;;;;;;5101158;28;20253;-51
2022/07/02 01:07:30;;;;;;;2.23;2.03;;;13.80;99.90;;;;;;5111642;28;20892;-50
2022/07/02 01:10:18;;;;;;;3.23;2.23;;;13.70;99.90;;;;;;5111514;28;20312;-51
2022/07/02 01:12:46;;;;;;;3.60;2.23;;;13.70;99.90;;;;;;5111906;28;20208;-51
2022/07/02 01:15:15;;;;;;;2.97;2.10;;;13.70;99.90;;;;;;5111315;28;20754;-51
2022/07/02 01:17:44;;;;;;;5.00;2.17;;;13.60;99.90;;;;;;5106574;28;20627;-53
2022/07/02 01:20:13;;;;;;;2.97;2.17;;;13.70;99.90;;;;;;5102694;28;20340;-53
2022/07/02 01:22:44;;;;;;;3.87;2.27;;;13.70;99.90;;;;;;5118028;28;20207;-50
2022/07/02 01:25:12;;;;;;;3.33;2.17;;;13.80;99.90;;;;;;5112045;28;20207;-51
2022/07/02 01:27:40;;;;;;;2.73;2.23;;;13.70;99.90;;;;;;5111150;28;20216;-50
2022/07/02 01:30:09;;;;;;;2.27;2.07;;;13.70;99.90;;;;;;5110179;28;20272;-51
2022/07/02 01:32:37;;;;;;;2.40;2.20;;;13.70;99.90;;;;;;5097807;28;20668;-51
2022/07/02 01:35:08;;;;;;;5.87;2.37;;;13.70;99.90;;;;;;5110485;28;20212;-50
2022/07/02 01:37:39;;;;;;;2.27;2.07;;;13.70;99.90;;;;;;5110670;28;20280;-51
2022/07/02 01:40:09;;;;;;;3.27;2.40;;;13.70;99.90;;;;;;5109942;28;20215;-50
2022/07/02 01:42:38;;;;;;;2.40;2.20;;;13.70;99.90;;;;;;5110652;28;20212;-50
2022/07/02 01:45:07;;;;;;;2.70;2.50;;;13.70;99.90;;;;;;5110179;28;20661;-51
2022/07/02 01:47:35;;;;;;;2.33;2.00;;;13.70;99.90;;;;;;5109869;28;20241;-51
2022/07/02 01:50:03;;;;;;;3.57;2.00;;;13.80;99.90;;;;;;5109874;28;20708;-51
2022/07/02 01:52:31;;;;;;;2.20;2.00;;;13.70;99.90;;;;;;5110280;28;20211;-50
2022/07/02 01:54:59;;;;;;;2.30;2.10;;;13.80;99.90;;;;;;5096295;28;20204;-50
2022/07/02 01:57:33;;;;;;;2.50;2.10;;;13.70;99.90;;;;;;5110137;28;20215;-50
2022/07/02 02:00:01;;;;;;;3.60;2.23;;;13.70;99.90;;;;;;5110129;28;20204;-51
2022/07/02 02:02:29;;;;;;;2.40;2.00;;;13.70;99.90;;;;;;5101067;28;20215;-51
2022/07/02 02:04:57;;;;;;;3.37;2.20;;;13.60;99.90;;;;;;5110179;28;20557;-51
2022/07/02 02:07:25;;;;;;;2.23;2.10;;;13.70;99.90;;;;;;5110213;28;20207;-51
2022/07/02 02:09:54;;;;;;;4.90;2.20;;;13.70;99.90;;;;;;5109796;28;20223;-49
2022/07/02 02:12:22;;;;;;;2.47;2.23;;;13.70;99.90;;;;;;5110303;28;20268;-51
2022/07/02 02:14:52;;;;;;;2.40;2.03;;;13.70;99.90;;;;;;5109683;28;20229;-50
2022/07/02 02:17:20;;;;;;;3.83;2.60;;;13.70;99.90;;;;;;5109523;28;20211;-51
2022/07/02 02:19:48;;;;;;;2.63;2.27;;;13.70;99.90;;;;;;5110376;28;20207;-50
2022/07/02 02:22:16;;;;;;;2.63;2.20;;;13.70;99.90;;;;;;5109905;28;20545;-51
2022/07/02 02:24:44;;;;;;;2.73;2.30;;;13.70;99.90;;;;;;5109403;28;20794;-51
2022/07/02 02:27:12;;;;;;;4.10;2.60;;;13.70;99.90;;;;;;5108592;28;20203;-50
2022/07/02 02:29:40;;;;;;;2.57;2.20;;;13.60;99.90;;;;;;5109389;28;20633;-50
2022/07/02 02:32:10;;;;;;;2.53;2.30;;;13.50;99.90;;;;;;5108850;28;20231;-50
2022/07/02 02:34:38;;;;;;;2.43;2.23;;;13.50;99.90;;;;;;5109124;28;20261;-51
2022/07/02 02:37:07;;;;;;;6.07;2.77;;;13.40;99.90;;;;;;5088898;28;20242;-51
2022/07/02 02:39:35;;;;;;;3.30;2.90;;;13.40;99.90;;;;;;5086435;28;20192;-50
2022/07/02 02:42:04;;;;;;;2.90;2.60;;;13.30;99.90;;;;;;5077804;28;20246;-50
2022/07/02 02:44:32;;;;;;;4.47;2.47;;;13.30;99.90;;;;;;5081231;28;20208;-51
2022/07/02 02:47:00;;;;;;;3.07;2.00;;;13.30;99.90;;;;;;5083216;28;20238;-50
2022/07/02 02:49:29;;;;;;;3.10;2.40;;;13.20;99.90;;;;;;5074796;28;20861;-51
2022/07/02 02:51:57;;;;;;;2.30;2.10;;;13.20;99.90;;;;;;5089141;28;20232;-51
2022/07/02 02:54:25;;;;;;;3.97;2.30;;;13.10;99.90;;;;;;5080258;28;20253;-51
2022/07/02 02:56:53;;;;;;;2.63;2.20;;;13.10;99.90;;;;;;5088935;28;20204;-50
2022/07/02 02:59:21;;;;;;;3.53;2.47;;;13.00;99.90;;;;;;5092823;28;20192;-49
2022/07/02 03:01:49;;;;;;;4.13;2.40;;;13.00;99.90;;;;;;5093075;28;20232;-50
2022/07/02 03:04:17;;;;;;;4.57;2.30;;;13.00;99.90;;;;;;5092674;28;20204;-51
2022/07/02 03:06:47;;;;;;;3.13;2.13;;;12.90;99.90;;;;;;5092851;28;20200;-50
2022/07/02 03:09:15;;;;;;;2.70;2.50;;;12.90;99.90;;;;;;5091027;28;20277;-50
2022/07/02 03:11:44;;;;;;;2.67;2.13;;;12.80;99.90;;;;;;5079289;28;20227;-51
2022/07/02 03:14:12;;;;;;;2.47;2.27;;;12.80;99.90;;;;;;5092795;28;20223;-51
2022/07/02 03:16:40;;;;;;;2.40;2.20;;;12.80;99.90;;;;;;5092497;28;20262;-51
2022/07/02 03:19:09;;;;;;;3.33;2.37;;;12.70;99.90;;;;;;5092515;28;20289;-51
2022/07/02 03:21:37;;;;;;;4.33;2.37;;;12.70;99.90;;;;;;5092329;28;20281;-51
2022/07/02 03:24:08;;;;;;;2.57;2.37;;;12.70;99.90;;;;;;5092353;28;20581;-51
2022/07/02 03:26:36;;;;;;;3.00;2.33;;;12.70;99.90;;;;;;5092192;28;20226;-50
2022/07/02 03:29:04;;;;;;;4.33;2.43;;;12.70;99.90;;;;;;5092643;28;20224;-51
2022/07/02 03:31:32;;;;;;;5.73;2.87;;;12.70;99.90;;;;;;5095646;28;20223;-51
2022/07/02 03:34:01;;;;;;;3.83;2.57;;;12.70;99.90;;;;;;5098948;28;20211;-49
2022/07/02 03:36:29;;;;;;;3.23;2.87;;;12.60;99.90;;;;;;5113212;28;20281;-51
2022/07/02 03:38:57;;;;;;;3.37;2.37;;;12.60;99.90;;;;;;5112427;28;20680;-51
2022/07/02 03:41:26;;;;;;;4.83;2.60;;;12.60;99.90;;;;;;5112766;28;20246;-51
2022/07/02 03:43:55;;;;;;;3.63;2.40;;;12.60;99.90;;;;;;5108582;28;20250;-51
2022/07/02 03:46:23;;;;;;;2.50;2.30;;;12.60;99.90;;;;;;5092701;28;20638;-51
2022/07/02 03:48:51;;;;;;;3.03;2.20;;;12.70;99.90;;;;;;5093035;28;20211;-50
2022/07/02 03:51:19;;;;;;;3.90;2.60;;;12.70;99.90;;;;;;5097182;28;20293;-50
2022/07/02 03:53:47;;;;;;;2.67;2.20;;;12.70;99.90;;;;;;5096695;28;20272;-49
2022/07/02 03:56:15;;;;;;;3.17;2.00;;;12.70;99.90;;;;;;5097564;28;20208;-50
2022/07/02 03:58:45;;;;;;;2.80;2.30;;;12.70;99.90;;;;;;5096734;28;20668;-50
2022/07/02 04:01:13;;;;;;;4.43;2.13;;;12.70;99.90;;;;;;5095216;28;20272;-50
2022/07/02 04:03:41;;;;;;;4.13;2.30;;;12.70;99.90;;;;;;5093259;28;20238;-50
2022/07/02 04:06:09;;;;;;;4.87;2.33;;;12.70;99.90;;;;;;5092837;28;20205;-49
2022/07/02 04:08:37;;;;;;;3.83;2.20;;;12.70;99.90;;;;;;5092241;28;20250;-48
2022/07/02 04:11:05;;;;;;;2.67;2.40;;;12.80;99.90;;;;;;5092501;28;20266;-50
2022/07/02 04:13:33;;;;;;;2.03;1.83;;;12.70;99.90;;;;;;5092430;28;20254;-50
2022/07/02 04:16:03;;;;;;;2.20;2.10;;;13.00;99.90;;;;;;5100001;28;20737;-51
2022/07/02 04:18:31;;;;;;;3.67;2.03;;;14.10;99.90;;;;;;5111666;28;20250;-51
2022/07/02 04:20:59;;;;;;;1.77;1.67;;;15.10;99.90;;;;;;5099252;28;20716;-50
2022/07/02 04:23:27;;;;;;;2.70;2.20;;;15.90;99.90;;;;;;5110274;28;20200;-50
2022/07/02 04:25:55;;;;;;;2.28;1.90;;;16.50;99.90;;;;;;5111975;28;20670;-51
2022/07/02 04:28:24;;;;;;;2.53;1.60;;;17.00;99.90;;;;;;5112439;28;20260;-50
2022/07/02 04:30:53;;;;;;;1.63;1.50;;;17.50;99.90;;;;;;5111085;28;20228;-51
2022/07/02 04:33:22;;;;;;;2.05;1.73;;;17.80;99.90;;;;;;5092882;28;20216;-51
2022/07/02 04:35:50;;;;;;;2.58;1.77;;;18.20;99.90;;;;;;5109653;28;20204;-49
2022/07/02 04:38:18;;;;;;;2.00;1.70;;;18.40;99.90;;;;;;5109171;28;20203;-49
2022/07/02 04:40:47;;;;;;;3.08;1.77;;;18.70;99.90;;;;;;5074413;28;20224;-50
2022/07/02 04:43:15;;;;;;;2.08;1.60;;;19.10;99.90;;;;;;5070672;28;20209;-51
2022/07/02 04:45:43;;;;;;;2.63;1.67;;;19.30;99.90;;;;;;5070276;28;20208;-51
2022/07/02 04:48:11;;;;;;;1.67;1.58;;;19.50;99.90;;;;;;5075762;28;20262;-50
2022/07/02 04:50:40;;;;;;;3.85;1.50;;;19.70;99.90;;;;;;5078436;28;20271;-51
2022/07/02 04:53:08;;;;;;;2.60;1.70;;;20.20;99.90;;;;;;5076838;28;20259;-51
2022/07/02 04:55:36;;;;;;;1.50;1.40;;;20.70;99.90;;;;;;5078005;28;20615;-51
2022/07/02 04:58:04;;;;;;;1.95;1.65;;;21.10;99.90;;;;;;5090286;28;20200;-51
2022/07/02 05:00:32;;;;;;;1.95;1.60;;;21.50;99.90;;;;;;5089507;28;20628;-51
2022/07/02 05:03:01;;;;;;;1.67;1.50;;;21.60;99.90;;;;;;5090090;28;20272;-50
2022/07/02 05:05:29;;;;;;;2.42;1.70;;;21.80;99.90;;;;;;5090161;28;20227;-51
2022/07/02 05:07:58;;;;;;;2.45;1.63;;;22.10;99.90;;;;;;5087147;28;20224;-51
2022/07/02 05:10:26;;;;;;;2.60;1.77;;;22.50;99.90;;;;;;5089046;28;20236;-51
2022/07/02 05:12:54;;;;;;;2.05;1.55;;;22.50;99.90;;;;;;5088598;28;20753;-50
2022/07/02 05:15:23;;;;;;;3.00;1.52;;;22.70;99.90;;;;;;5084224;28;20639;-52
2022/07/02 05:17:51;;;;;;;1.73;1.27;;;22.90;99.90;;;;;;5071999;28;20216;-51
2022/07/02 05:20:19;;;;;;;1.85;1.50;;;23.20;99.90;;;;;;5072922;28;20221;-51
2022/07/02 05:22:47;;;;;;;3.65;1.50;;;23.30;99.90;;;;;;5082298;28;20204;-52
2022/07/02 05:25:17;;;;;;;3.15;1.55;;;23.50;99.90;;;;;;5085006;28;20208;-52
2022/07/02 05:27:45;;;;;;;3.83;1.92;;;23.70;99.90;;;;;;5089618;28;20208;-50
2022/07/02 05:30:13;;;;;;;3.00;1.73;;;24.10;99.90;;;;;;5082704;28;20644;-50
2022/07/02 05:32:41;;;;;;;2.55;1.60;;;24.40;99.90;;;;;;5088663;28;20261;-51
2022/07/02 05:35:10;;;;;;;2.10;1.90;;;24.60;99.90;;;;;;5088666;28;20208;-52
2022/07/02 05:37:38;;;;;;;1.95;1.38;;;24.80;99.90;;;;;;5086684;28;20219;-52
2022/07/02 05:40:07;;;;;;;3.58;1.30;;;25.00;99.90;;;;;;5088098;28;20565;-52
2022/07/02 05:42:36;;;;;;;3.67;1.67;;;25.10;99.90;;;;;;5085502;28;20204;-52
2022/07/02 05:45:05;;;;;;;2.25;1.50;;;25.30;99.90;;;;;;5087776;28;20257;-51
2022/07/02 05:47:33;;;;;;;2.38;1.45;;;25.40;99.90;;;;;;5071472;28;20197;-51
2022/07/02 05:50:02;;;;;;;1.60;1.30;;;25.60;99.90;;;;;;5073142;28;20247;-51
2022/07/02 05:52:30;;;;;;;1.50;1.40;;;25.60;99.90;;;;;;5072022;28;20197;-52
2022/07/02 05:54:58;;;;;;;2.20;1.70;;;25.70;99.90;;;;;;5069310;28;20227;-52
2022/07/02 05:57:26;;;;;;;2.33;1.10;;;25.70;99.90;;;;;;5070129;28;20205;-52
2022/07/02 05:59:55;;;;;;;2.47;1.55;;;25.90;99.90;;;;;;5071748;28;20209;-52
2022/07/02 06:02:24;;;;;;;1.90;1.40;;;26.00;99.90;;;;;;5075677;28;20254;-52
2022/07/02 06:04:52;;;;;;;3.55;1.55;;;26.20;99.90;;;;;;5088711;28;20240;-52
2022/07/02 06:10:07;;;;;;;2.42;1.40;;;26.90;99.90;;;;;;5077773;28;20372;-52
2022/07/02 06:12:36;;;;;;;2.00;1.40;;;27.00;99.90;;;;;;5081458;28;20212;-52
2022/07/02 06:15:07;;;;;;;2.90;1.50;;;26.90;99.90;;;;;;5087936;28;20204;-52
2022/07/02 06:17:35;;;;;;;3.55;1.58;;;27.30;99.90;;;;;;5072707;28;20318;-53
2022/07/02 06:20:03;;;;;;;1.40;1.30;;;27.50;99.90;;;;;;5069388;28;20678;-52
2022/07/02 06:22:31;;;;;;;3.88;1.55;;;27.50;99.90;;;;;;5081365;28;20208;-52
2022/07/02 06:25:00;;;;;;;2.72;1.58;;;27.60;99.60;;;;;;5086067;28;20250;-52
2022/07/02 06:27:28;;;;;;;2.72;1.67;;;27.20;99.90;;;;;;5086680;28;20660;-52
2022/07/02 06:29:56;;;;;;;2.15;1.45;;;27.30;99.90;;;;;;5086086;28;20204;-51
2022/07/02 06:32:25;;;;;;;3.20;1.58;;;27.40;99.90;;;;;;5087372;28;20232;-50
2022/07/02 06:34:53;;;;;;;2.05;1.67;;;27.60;99.70;;;;;;5089354;28;20618;-52
2022/07/02 06:37:22;;;;;;;2.03;1.75;;;27.60;99.90;;;;;;5091526;28;20230;-51
2022/07/02 06:39:50;;;;;;;2.92;1.80;;;27.90;99.90;;;;;;5089474;28;20291;-51
2022/07/02 06:42:22;;;;;;;2.90;1.42;;;28.00;99.90;;;;;;5092816;28;20277;-51
2022/07/02 06:44:52;;;;;;;2.88;1.90;;;28.40;99.90;;;;;;5090678;28;20573;-51
2022/07/02 06:47:28;;;;;;;2.95;2.05;;;28.20;99.90;;;;;;5092042;28;20230;-52
2022/07/02 06:49:57;;;;;;;2.92;2.40;;;28.20;99.50;;;;;;5093081;28;20204;-52
2022/07/02 06:52:26;;;;;;;2.33;2.08;;;28.30;99.10;;;;;;5092417;28;20245;-52
2022/07/02 06:54:54;;;;;;;4.00;2.42;;;28.40;99.30;;;;;;5092909;28;20237;-51
2022/07/02 06:57:22;;;;;;;3.28;2.25;;;28.40;98.80;;;;;;5092588;28;20334;-51
2022/07/02 06:59:53;;;;;;;3.92;2.70;;;28.20;99.10;;;;;;5093100;28;20211;-51
2022/07/02 07:02:22;;;;;;;3.80;2.50;;;28.60;98.30;;;;;;5092463;28;20215;-51
2022/07/02 07:04:52;;;;;;;3.22;2.70;;;28.80;97.80;;;;;;5078387;28;20208;-51
2022/07/02 07:07:25;;;;;;;4.15;2.80;;;28.80;98.20;;;;;;5088448;28;20694;-52
2022/07/02 07:09:53;;;;;;;3.42;2.88;;;29.00;97.40;;;;;;5091745;28;20234;-51
2022/07/02 07:12:21;;;;;;;6.10;3.00;;;28.90;97.80;;;;;;5092476;28;20281;-52
2022/07/02 07:14:49;;;;;;;4.10;2.33;;;29.00;97.50;;;;;;5091888;28;21031;-52
2022/07/02 07:17:17;;;;;;;3.00;2.53;;;29.10;97.30;;;;;;5092746;28;20561;-52
2022/07/02 07:19:45;;;;;;;5.20;2.65;;;29.30;96.50;;;;;;5092397;28;20204;-52
2022/07/02 07:22:15;;;;;;;4.82;2.60;;;29.30;96.80;;;;;;5081329;28;20294;-51
2022/07/02 07:24:43;;;;;;;4.78;2.25;;;29.30;96.40;;;;;;5091175;28;20208;-52
2022/07/02 07:27:11;;;;;;;3.28;2.30;;;29.00;96.70;;;;;;5096120;28;20287;-52
2022/07/02 07:29:39;;;;;;;6.38;2.28;;;29.00;96.40;;;;;;5088132;28;20259;-53
2022/07/02 07:32:08;;;;;;;3.53;2.13;;;28.90;96.70;;;;;;5107860;28;20239;-52
2022/07/02 07:34:41;;;;;;;5.70;2.25;;;28.80;96.10;;;;;;5099823;28;20264;-52
2022/07/02 07:37:11;;;;;;;5.03;2.67;;;29.10;96.80;;;;;;5083445;28;20208;-53
2022/07/02 07:39:40;;;;;;;3.38;1.80;;;29.00;96.00;;;;;;5084591;28;20212;-52
2022/07/02 07:42:09;;;;;;;4.78;1.80;;;29.20;95.20;;;;;;5084648;28;20667;-52
2022/07/02 07:44:37;;;;;;;4.13;1.90;;;29.40;94.40;;;;;;5088508;28;20201;-52
2022/07/02 07:47:06;;;;;;;1.90;1.50;;;29.30;94.70;;;;;;5081342;28;20212;-52
2022/07/02 07:49:35;;;;;;;1.60;1.20;;;29.30;94.20;;;;;;5085068;28;20208;-52
2022/07/02 07:52:03;;;;;;;2.53;1.48;;;29.40;94.00;;;;;;5086498;28;20228;-52
2022/07/02 07:54:31;;;;;;;2.20;1.70;;;29.50;92.90;;;;;;5089343;28;20265;-52
2022/07/02 07:57:00;;;;;;;2.70;1.70;;;29.60;92.60;;;;;;5088607;28;20205;-53
2022/07/02 07:59:28;;;;;;;1.95;1.50;;;29.50;93.20;;;;;;5092413;28;20633;-52
2022/07/02 08:01:57;;;;;;;3.30;1.95;;;29.30;93.20;;;;;;5092954;28;20216;-53
2022/07/02 08:04:25;;;;;;;3.58;1.60;;;29.10;94.20;;;;;;5093704;28;20200;-52
2022/07/02 08:06:53;;;;;;;1.73;1.63;;;29.40;93.20;;;;;;5093613;28;20208;-53
2022/07/02 08:09:21;;;;;;;2.95;1.90;;;29.50;92.80;;;;;;5090571;28;20208;-52
2022/07/02 08:11:49;;;;;;;3.25;1.80;;;29.30;92.80;;;;;;5092927;28;20228;-52
2022/07/02 08:14:19;;;;;;;3.25;1.30;;;28.70;93.20;;;;;;5095644;28;20631;-52
2022/07/02 08:16:47;;;;;;;2.80;1.80;;;28.40;93.00;;;;;;5091995;28;20665;-52
2022/07/02 08:19:15;;;;;;;3.08;1.38;;;27.90;93.50;;;;;;5092309;28;20213;-52
2022/07/02 08:21:43;;;;;;;2.85;1.60;;;27.70;95.20;;;;;;5088688;28;20236;-52
2022/07/02 08:24:11;;;;;;;3.63;1.60;;;27.60;94.10;;;;;;5089156;28;20212;-52
2022/07/02 08:26:39;;;;;;;2.13;1.40;;;27.60;94.10;;;;;;5096097;28;20253;-52
2022/07/02 08:29:09;;;;;;;3.10;1.30;;;27.20;93.60;;;;;;5089836;28;20238;-51
2022/07/02 08:31:38;;;;;;;2.50;1.50;;;27.00;94.30;;;;;;5094063;28;20765;-51
2022/07/02 08:34:06;;;;;;;3.60;1.92;;;27.10;93.60;;;;;;5091233;28;20295;-52
2022/07/02 08:36:34;;;;;;;4.22;1.80;;;26.80;94.30;;;;;;5091282;28;20281;-52
2022/07/02 08:39:02;;;;;;;3.92;1.70;;;26.60;94.70;;;;;;5093987;28;20208;-52
2022/07/02 08:41:31;;;;;;;2.20;1.52;;;26.80;95.30;;;;;;5090769;28;20721;-52
2022/07/02 08:44:02;;;;;;;3.08;1.58;;;26.80;94.40;;;;;;5089590;28;20200;-52
2022/07/02 08:46:31;;;;;;;5.03;1.42;;;26.70;94.30;;;;;;5089866;28;21023;-52
2022/07/02 08:49:02;;;;;;;2.20;1.40;;;26.60;94.20;;;;;;5089722;28;20205;-52
2022/07/02 08:51:30;;;;;;;3.72;1.45;;;26.70;94.50;;;;;;5090026;28;20601;-52
2022/07/02 08:54:01;;;;;;;1.88;1.20;;;26.60;93.50;;;;;;5087944;28;20266;-52
2022/07/02 08:56:31;;;;;;;3.53;1.02;;;26.50;94.30;;;;;;5085088;28;20208;-52
2022/07/02 08:59:00;;;;;;;5.30;1.40;;;26.30;92.80;;;;;;5089439;28;20997;-52
2022/07/02 09:01:29;;;;;;;1.65;1.10;;;26.30;94.30;;;;;;5089295;28;20224;-52
2022/07/02 09:03:58;;;;;;;3.75;1.23;;;26.30;94.10;;;;;;5089462;28;20200;-52
2022/07/02 09:06:29;;;;;;;2.67;1.08;;;26.40;93.70;;;;;;5089724;28;20204;-52
2022/07/02 09:08:58;;;;;;;1.38;1.20;;;26.30;92.90;;;;;;5089979;28;20208;-52
2022/07/02 09:11:29;;;;;;;1.30;1.10;;;26.20;93.30;;;;;;5087013;28;20220;-52
2022/07/02 09:13:58;;;;;;;2.38;1.30;;;26.20;93.10;;;;;;5083954;28;20227;-51
2022/07/02 09:16:27;;;;;;;2.17;1.02;;;26.20;94.30;;;;;;5086740;28;20205;-51
2022/07/02 09:18:55;;;;;;;1.95;1.25;;;26.30;94.00;;;;;;5088599;28;20296;-52
2022/07/02 09:21:23;;;;;;;2.30;1.13;;;26.30;93.80;;;;;;5090238;28;20900;-51
2022/07/02 09:23:53;;;;;;;2.03;0.93;;;26.10;93.90;;;;;;5091730;28;20726;-52
2022/07/02 09:26:22;;;;;;;1.85;1.23;;;26.40;93.90;;;;;;5090651;28;20265;-52
2022/07/02 09:28:59;;;;;;;2.60;1.42;;;26.30;93.70;;;;;;5083948;28;20208;-52
2022/07/02 09:31:28;;;;;;;2.78;1.30;;;26.30;95.50;;;;;;5083280;28;20224;-51
2022/07/02 09:33:57;;;;;;;2.47;1.48;;;26.50;94.00;;;;;;5084936;28;20224;-51
2022/07/02 09:36:26;;;;;;;4.43;1.20;;;26.60;94.00;;;;;;5084751;28;20277;-51
2022/07/02 09:38:56;;;;;;;3.38;1.30;;;26.40;93.80;;;;;;5084603;28;20218;-51
2022/07/02 09:41:24;;;;;;;2.00;1.25;;;26.40;94.80;;;;;;5083080;28;20254;-51
2022/07/02 09:43:53;;;;;;;2.28;1.20;;;26.50;94.00;;;;;;5083835;28;20701;-52
2022/07/02 09:46:22;;;;;;;3.08;1.00;;;26.60;93.60;;;;;;5085221;28;20712;-52
2022/07/02 09:48:50;;;;;;;2.33;1.27;;;26.50;93.40;;;;;;5081461;28;20200;-52
2022/07/02 09:51:19;;;;;;;35.88;9.80;;;26.40;93.30;;;;;;5084135;28;20269;-52
2022/07/02 09:53:48;;;;;;;53.03;17.17;;;26.10;93.00;;;;;;5077823;28;20269;-52
2022/07/02 09:56:18;;;;;;;11.10;3.20;;;25.80;93.80;;;;;;5078245;28;20262;-52
2022/07/02 09:58:46;;;;;;;2.78;1.30;;;25.90;93.60;;;;;;5079535;28;20200;-52
2022/07/02 10:01:19;;;;;;;2.60;1.10;;;26.10;93.10;;;;;;5084878;28;20277;-52
2022/07/02 10:03:49;;;;;;;5.13;1.90;;;26.20;92.30;;;;;;5082217;28;20201;-52
2022/07/02 10:06:18;;;;;;;2.13;0.85;;;26.00;91.80;;;;;;5086041;28;20738;-51
2022/07/02 10:08:54;;;;;;;6.15;2.70;;;26.20;91.80;;;;;;5083276;28;20204;-52
2022/07/02 10:11:24;;;;;;;2.78;0.93;;;26.30;92.70;;;;;;5080113;28;20212;-51
2022/07/02 10:13:56;;;;;;;0.98;0.90;;;26.20;93.00;;;;;;5084947;28;20799;-51
2022/07/02 10:16:26;;;;;;;3.08;1.17;;;26.20;92.50;;;;;;5083252;28;20208;-51
2022/07/02 10:18:58;;;;;;;2.40;1.00;;;26.30;93.10;;;;;;5085620;28;20236;-52
2022/07/02 10:21:27;;;;;;;3.53;1.48;;;26.20;91.60;;;;;;5087971;28;20232;-52
2022/07/02 10:23:55;;;;;;;2.42;1.17;;;26.20;91.00;;;;;;5087813;28;20272;-52
2022/07/02 10:26:26;;;;;;;2.60;1.20;;;26.00;91.10;;;;;;5088344;28;20428;-52
2022/07/02 10:28:55;;;;;;;3.15;1.25;;;26.00;91.80;;;;;;5088621;28;20225;-52
2022/07/02 10:31:23;;;;;;;1.55;1.17;;;26.00;92.00;;;;;;5088375;28;20253;-52
2022/07/02 10:33:57;;;;;;;2.13;1.30;;;26.10;92.10;;;;;;5088332;28;20228;-52
2022/07/02 10:36:25;;;;;;;3.72;1.33;;;26.00;91.30;;;;;;5085898;28;20261;-52
2022/07/02 10:38:58;;;;;;;4.45;1.23;;;26.10;91.20;;;;;;5088431;28;20734;-52
2022/07/02 10:41:29;;;;;;;2.95;1.30;;;26.10;93.00;;;;;;5087081;28;20633;-52
2022/07/02 10:43:59;;;;;;;2.38;1.20;;;26.00;92.30;;;;;;5087400;28;20253;-52
2022/07/02 10:46:34;;;;;;;1.75;1.35;;;26.10;92.40;;;;;;5087327;28;20208;-52
2022/07/02 10:49:04;;;;;;;3.78;1.10;;;26.20;93.50;;;;;;5087360;28;20785;-52
2022/07/02 10:51:35;;;;;;;1.75;1.08;;;26.20;92.20;;;;;;5084578;28;20243;-52
2022/07/02 10:54:05;;;;;;;4.38;1.00;;;26.20;92.30;;;;;;5085902;28;20208;-52
2022/07/02 10:56:46;;;;;;;2.63;1.10;;;26.40;93.30;;;;;;5089497;28;20205;-52
2022/07/02 10:59:22;;;;;;;1.55;0.98;;;26.40;92.10;;;;;;5089683;28;20240;-52
2022/07/02 11:02:01;;;;;;;2.15;0.90;;;26.40;92.70;;;;;;5090629;28;20293;-52
2022/07/02 11:04:29;;;;;;;2.45;1.08;;;26.50;93.50;;;;;;5091849;28;20238;-52
2022/07/02 11:07:06;;;;;;;3.85;1.30;;;26.50;93.80;;;;;;5091803;28;20277;-51
2022/07/02 11:09:46;;;;;;;3.35;1.35;;;26.20;91.60;;;;;;5090003;28;20621;-52
2022/07/02 11:12:22;;;;;;;2.63;1.35;;;26.20;92.40;;;;;;5088243;28;20299;-52
2022/07/02 11:14:55;;;;;;;1.75;0.98;;;26.10;92.40;;;;;;5093548;28;20219;-52
2022/07/02 11:17:48;;;;;;;1.27;1.00;;;26.00;90.20;;;;;;5085445;28;20295;-52
2022/07/02 11:20:25;;;;;;;1.65;0.93;;;26.00;92.80;;;;;;5084097;28;20219;-52
2022/07/02 11:22:55;;;;;;;1.48;0.90;;;26.00;91.40;;;;;;5090782;28;20993;-52
2022/07/02 11:25:23;;;;;;;1.65;0.95;;;25.90;91.30;;;;;;5091217;28;20240;-51
2022/07/02 11:28:00;;;;;;;6.03;1.00;;;25.80;89.50;;;;;;5087582;28;20613;-52
2022/07/02 11:30:30;;;;;;;0.90;0.90;;;25.90;91.70;;;;;;5082837;28;20228;-51
2022/07/02 11:32:59;;;;;;;1.13;0.75;;;26.00;91.70;;;;;;5089292;28;20208;-51
2022/07/02 11:35:28;;;;;;;2.83;1.00;;;25.90;90.00;;;;;;5088173;28;20208;-52
2022/07/02 11:37:57;;;;;;;2.40;1.08;;;26.10;90.10;;;;;;5086312;28;20204;-51
2022/07/02 11:40:26;;;;;;;0.93;0.70;;;26.00;87.10;;;;;;5087647;28;20224;-52
2022/07/02 11:42:55;;;;;;;2.47;1.00;;;25.90;88.80;;;;;;5087308;28;20230;-52
2022/07/02 11:45:25;;;;;;;2.67;0.95;;;25.90;90.90;;;;;;5086487;28;20204;-52
2022/07/02 11:47:53;;;;;;;1.65;1.10;;;26.00;90.30;;;;;;5087214;28;20201;-51
2022/07/02 11:50:28;;;;;;;1.33;0.75;;;26.10;91.00;;;;;;5088229;28;20224;-51
2022/07/02 11:52:56;;;;;;;2.05;1.00;;;26.20;90.10;;;;;;5086182;28;20257;-52
2022/07/02 11:55:24;;;;;;;2.58;1.10;;;26.00;89.50;;;;;;5086357;28;20750;-51
2022/07/02 11:57:52;;;;;;;1.17;0.80;;;25.90;90.50;;;;;;5088524;28;20200;-51
2022/07/02 12:00:20;;;;;;;1.48;0.95;;;26.10;90.90;;;;;;5087977;28;20223;-51
2022/07/02 12:02:50;;;;;;;1.60;0.73;;;26.10;89.90;;;;;;5088584;28;20204;-51
2022/07/02 12:05:19;;;;;;;2.58;0.95;;;26.10;90.10;;;;;;5087766;28;20204;-51
2022/07/02 12:07:48;;;;;;;1.85;1.00;;;26.10;90.10;;;;;;5087486;28;20211;-52
2022/07/02 12:10:16;;;;;;;2.95;1.20;;;26.20;90.60;;;;;;5072773;28;20205;-51
2022/07/02 12:12:44;;;;;;;1.35;0.60;;;26.10;87.60;;;;;;5068538;28;20269;-53
2022/07/02 12:15:12;;;;;;;1.15;1.00;;;26.10;90.60;;;;;;5088281;28;20704;-52
2022/07/02 12:17:47;;;;;;;3.13;1.10;;;26.10;87.80;;;;;;5090383;28;20246;-51
2022/07/02 12:20:18;;;;;;;1.63;0.80;;;26.00;89.40;;;;;;5090266;28;21034;-52
2022/07/02 12:22:52;;;;;;;1.42;0.98;;;26.00;88.20;;;;;;5087953;28;20287;-52
2022/07/02 12:25:21;;;;;;;1.65;0.80;;;25.90;88.40;;;;;;5089239;28;20234;-52
2022/07/02 12:27:55;;;;;;;3.00;1.20;;;26.00;91.30;;;;;;5092000;28;20203;-52
2022/07/02 12:30:23;;;;;;;1.83;0.90;;;26.10;90.90;;;;;;5092649;28;20220;-52
2022/07/02 12:32:54;;;;;;;2.60;0.93;;;26.20;90.00;;;;;;5094884;28;20204;-52
2022/07/02 12:35:24;;;;;;;2.22;1.10;;;26.30;90.50;;;;;;5090344;28;20285;-52
2022/07/02 12:37:58;;;;;;;2.58;1.08;;;26.30;90.30;;;;;;5090258;28;20211;-51
2022/07/02 12:40:26;;;;;;;2.67;1.10;;;26.30;90.40;;;;;;5089405;28;20223;-52
2022/07/02 12:42:55;;;;;;;2.53;0.95;;;26.10;89.00;;;;;;5090051;28;20204;-51
2022/07/02 12:45:26;;;;;;;2.05;1.13;;;26.10;90.30;;;;;;5085960;28;20203;-52
2022/07/02 12:47:59;;;;;;;2.15;0.98;;;26.10;91.10;;;;;;5088388;28;20794;-52
2022/07/02 12:50:30;;;;;;;2.28;1.08;;;26.10;91.00;;;;;;5088528;28;20740;-52
2022/07/02 12:53:06;;;;;;;2.58;0.95;;;26.10;91.60;;;;;;5088987;28;20208;-52
2022/07/02 12:55:36;;;;;;;2.15;0.88;;;26.20;91.80;;;;;;5089871;28;20207;-51
2022/07/02 12:58:07;;;;;;;1.55;0.90;;;26.20;89.80;;;;;;5088942;28;20204;-51